Data for 03/10/2016

Time Sea-Level Adjusted Pressure Absolute Pressure Temperature Relative Humidity Dew Point   
(mb) (inHg) (mb) (inHg) (C) (F) (%) (C) (F)
00:05 1016 30 845 24.95 2 35.5 49 -7.6 18.4
00:10 1016 30 845 24.95 2 35.7 49 -7.6 18.4
00:15 1016 30 845 24.95 2 35.7 50 -7.4 18.7
00:20 1016 30 845 24.95 2.1 35.8 48 -7.8 17.9
00:25 1015 29.97 845 24.95 2.1 35.7 50 -7.2 19.1
00:30 1015 29.97 845 24.95 1.9 35.5 51 -7.1 19.3
00:35 1015 29.97 845 24.95 1.8 35.3 51 -7.1 19.1
00:40 1015 29.97 844 24.92 2 35.6 51 -7 19.4
00:45 1015 29.97 844 24.92 1.9 35.4 53 -6.7 20
00:50 1015 29.97 844 24.92 1.7 35.1 53 -6.8 19.8
00:55 1015 29.97 844 24.92 1.7 35.1 54 -6.7 20
01:00 1015 29.97 845 24.95 1.7 35.1 54 -6.7 20
01:05 1015 29.97 844 24.92 1.7 35 54 -6.6 20.1
01:10 1015 29.97 844 24.92 1.7 35 54 -6.5 20.2
01:15 1015 29.97 844 24.92 1.7 35 55 -6.5 20.4
01:20 1015 29.97 844 24.92 1.8 35.2 54 -6.5 20.3
01:25 1015 29.97 845 24.95 1.8 35.2 55 -6.4 20.5
01:30 1015 29.97 845 24.95 1.7 35.1 55 -6.4 20.5
01:35 1016 30 845 24.95 1.9 35.4 54 -6.5 20.2
01:40 1016 30 845 24.95 2 35.6 55 -6.2 20.8
01:45 1016 30 845 24.95 1.9 35.4 55 -6.2 20.9
01:50 1016 30 845 24.95 2 35.6 55 -6.1 21
01:55 1016 30 845 24.95 2.1 35.8 54 -6.1 21
02:00 1016 30 845 24.95 2.1 35.8 55 -6 21.2
02:05 1016 30 845 24.95 2.2 35.9 54 -6.2 20.9
02:10 1016 30 845 24.95 2.3 36.2 54 -5.9 21.3
02:15 1016 30 845 24.95 2.3 36.2 54 -5.9 21.3
02:20 1016 30 845 24.95 2.3 36.1 55 -5.9 21.3
02:25 1016 30 845 24.95 2.4 36.4 54 -5.9 21.4
02:30 1016 30 845 24.95 2.4 36.3 54 -5.9 21.3
02:35 1016 30 845 24.95 2.5 36.6 53 -6 21.2
02:40 1016 30 845 24.95 2.7 36.8 53 -5.9 21.5
02:45 1016 30 845 24.95 2.7 36.8 54 -5.8 21.5
02:50 1016 30 845 24.95 2.5 36.6 55 -5.6 21.8
02:55 1016 30 845 24.95 2.6 36.6 55 -5.6 21.9
03:00 1016 30 845 24.95 2.7 36.8 54 -5.7 21.7
03:05 1016 30 845 24.95 2.8 37 54 -5.7 21.8
03:10 1016 30 845 24.95 2.8 37.1 54 -5.6 22
03:15 1016 30 845 24.95 2.8 37 55 -5.5 22.2
03:20 1016 30 845 24.95 2.7 36.8 55 -5.5 22.1
03:25 1016 30 845 24.95 2.6 36.7 55 -5.4 22.2
03:30 1016 30 845 24.95 2.6 36.6 56 -5.4 22.3
03:35 1016 30 845 24.95 2.5 36.6 56 -5.4 22.2
03:40 1015 29.97 845 24.95 2.9 37.2 52 -5.9 21.4
03:45 1015 29.97 845 24.95 3.6 38.5 51 -5.7 21.8
03:50 1015 29.97 844 24.92 3.7 38.6 52 -5.3 22.4
03:55 1015 29.97 844 24.92 4 39.2 50 -5.5 22.1
04:00 1015 29.97 844 24.92 4.3 39.7 49 -5.4 22.4
04:05 1015 29.97 844 24.92 4.2 39.5 51 -5.2 22.7
04:10 1015 29.97 844 24.92 3.8 38.9 51 -5.3 22.4
04:15 1015 29.97 844 24.92 4.2 39.6 49 -5.4 22.2
04:20 1015 29.97 844 24.92 4.8 40.7 48 -5.1 22.8
04:25 1015 29.97 844 24.92 4.5 40.1 51 -4.8 23.4
04:30 1015 29.97 844 24.92 3.8 38.8 52 -5.1 22.8
04:35 1015 29.97 844 24.92 3.6 38.6 52 -5.3 22.5
04:40 1015 29.97 844 24.92 4.1 39.4 51 -5.1 22.8
04:45 1015 29.97 844 24.92 4.5 40.1 50 -4.9 23.2
04:50 1015 29.97 844 24.92 5 41 49 -4.8 23.3
04:55 1015 29.97 844 24.92 5.4 41.7 47 -4.9 23.1
05:00 1015 29.97 844 24.92 5.8 42.4 47 -4.8 23.4
05:05 1015 29.97 844 24.92 5.8 42.4 47 -4.7 23.6
05:10 1015 29.97 844 24.92 5.6 42.1 48 -4.6 23.7
05:15 1015 29.97 844 24.92 5 41.1 50 -4.5 24
05:20 1014 29.94 844 24.92 4.6 40.3 51 -4.7 23.6
05:25 1014 29.94 844 24.92 4.5 40.1 52 -4.6 23.7
05:30 1014 29.94 843 24.89 4.4 39.9 51 -4.8 23.3
05:35 1014 29.94 844 24.92 4.8 40.6 50 -4.8 23.3
05:40 1014 29.94 844 24.92 5.3 41.6 49 -4.7 23.6
05:45 1014 29.94 844 24.92 5.5 41.9 50 -4.1 24.7
05:50 1014 29.94 844 24.92 5.9 42.6 46 -4.9 23.2
05:55 1014 29.94 844 24.92 6.3 43.4 45 -4.8 23.3
06:00 1015 29.97 844 24.92 6.6 43.9 44 -4.6 23.7
06:05 1014 29.94 844 24.92 6.6 43.9 45 -4.5 23.9
06:10 1014 29.94 844 24.92 6.7 44.1 44 -4.7 23.6
06:15 1014 29.94 844 24.92 6.9 44.5 44 -4.6 23.7
06:20 1015 29.97 844 24.92 7.1 44.8 43 -4.6 23.7
06:25 1015 29.97 844 24.92 7.1 44.7 44 -4.5 24
06:30 1015 29.97 844 24.92 7.1 44.8 43 -4.6 23.8
06:35 1015 29.97 844 24.92 7.3 45.1 43 -4.3 24.2
06:40 1015 29.97 844 24.92 7.3 45.2 43 -4.3 24.3
06:45 1015 29.97 844 24.92 7.4 45.3 43 -4.3 24.3
06:50 1015 29.97 844 24.92 7.4 45.4 44 -4 24.8
06:55 1015 29.97 844 24.92 7.3 45.1 46 -3.7 25.4
07:00 1015 29.97 844 24.92 7.1 44.8 45 -3.9 25
07:05 1015 29.97 844 24.92 7 44.7 46 -3.8 25.1
07:10 1015 29.97 844 24.92 7 44.5 45 -4.2 24.5
07:15 1015 29.97 844 24.92 7.1 44.9 45 -4 24.7
07:20 1015 29.97 844 24.92 7.1 44.9 45 -4 24.7
07:25 1015 29.97 844 24.92 7.2 44.9 45 -4 24.8
07:30 1015 29.97 844 24.92 7.1 44.8 46 -3.7 25.3
07:35 1015 29.97 844 24.92 7.1 44.9 45 -3.9 25
07:40 1015 29.97 844 24.92 7.1 44.7 47 -3.4 25.8
07:45 1015 29.97 844 24.92 7.3 45.2 45 -3.8 25.1
07:50 1015 29.97 844 24.92 7.4 45.3 45 -3.8 25.2
07:55 1015 29.97 844 24.92 7.5 45.5 44 -4 24.9
08:00 1015 29.97 844 24.92 7.6 45.7 44 -3.8 25.1
08:05 1015 29.97 844 24.92 7.8 46 44 -3.8 25.2
08:10 1015 29.97 844 24.92 7.7 45.8 45 -3.6 25.5
08:15 1015 29.97 844 24.92 7.6 45.6 46 -3.4 25.9
08:20 1015 29.97 844 24.92 7.4 45.3 47 -3.3 26.1
08:25 1015 29.97 844 24.92 7.1 44.8 48 -3.1 26.5
08:30 1015 29.97 844 24.92 6.6 43.9 49 -3.4 25.9
08:35 1015 29.97 844 24.92 6.8 44.2 49 -3.1 26.5
08:40 1015 29.97 844 24.92 7.4 45.3 48 -3 26.6
08:45 1015 29.97 844 24.92 7.8 46 47 -2.9 26.9
08:50 1015 29.97 844 24.92 8 46.3 47 -2.7 27.1
08:55 1015 29.97 844 24.92 8 46.4 47 -2.7 27.2
09:00 1015 29.97 844 24.92 8.2 46.7 45 -3.1 26.4
09:05 1015 29.97 844 24.92 8.5 47.3 45 -2.6 27.3
09:10 1015 29.97 844 24.92 8.4 47 46 -2.6 27.4
09:15 1015 29.97 844 24.92 8.6 47.5 44 -2.9 26.8
09:20 1015 29.97 844 24.92 8.7 47.7 45 -2.7 27.2
09:25 1015 29.97 844 24.92 8.8 47.9 43 -3.1 26.5
09:30 1015 29.97 844 24.92 9 48.3 42 -3.2 26.2
09:35 1015 29.97 844 24.92 9.1 48.4 42 -3.1 26.5
09:40 1015 29.97 844 24.92 9 48.3 43 -2.9 26.8
09:45 1015 29.97 844 24.92 9.1 48.4 43 -2.9 26.7
09:50 1015 29.97 844 24.92 9.3 48.7 42 -3 26.6
09:55 1015 29.97 844 24.92 9.5 49.1 41 -3 26.6
10:00 1015 29.97 844 24.92 9.9 49.8 40 -3 26.7
10:05 1015 29.97 844 24.92 10.7 51.3 38 -3.1 26.4
10:10 1015 29.97 844 24.92 11.3 52.3 36 -3.2 26.2
10:15 1015 29.97 844 24.92 12 53.6 36 -2.7 27.1
10:20 1015 29.97 844 24.92 12 53.5 35 -3.1 26.4
10:25 1015 29.97 844 24.92 12.6 54.7 33 -3 26.6
10:30 1015 29.97 844 24.92 12.7 54.8 34 -2.8 27
10:35 1015 29.97 844 24.92 12.2 54 35 -2.7 27.2
10:40 1015 29.97 845 24.95 11.9 53.3 36 -2.6 27.4
10:45 1015 29.97 844 24.92 12 53.5 35 -3.1 26.5
10:50 1015 29.97 844 24.92 12.6 54.6 33 -3.3 26.1
10:55 1015 29.97 844 24.92 13 55.5 33 -3 26.6
11:00 1015 29.97 844 24.92 12.9 55.2 33 -3.1 26.5
11:05 1015 29.97 844 24.92 12.4 54.4 33 -3.3 26
11:10 1015 29.97 844 24.92 13.5 56.2 30 -3.5 25.7
11:15 1015 29.97 845 24.95 13.8 56.8 31 -3 26.5
11:20 1015 29.97 845 24.95 13.9 57 31 -2.8 27
11:25 1015 29.97 845 24.95 13.5 56.3 31 -3.3 26.1
11:30 1015 29.97 845 24.95 13.2 55.7 30 -3.8 25.1
11:35 1015 29.97 844 24.92 13.3 56 30 -3.9 24.9
11:40 1015 29.97 844 24.92 13.4 56.1 30 -3.7 25.3
11:45 1015 29.97 844 24.92 13.4 56.1 30 -3.9 25.1
11:50 1015 29.97 844 24.92 13.3 56 30 -3.8 25.2
11:55 1015 29.97 844 24.92 13.9 56.9 28 -4.2 24.5
12:00 1015 29.97 844 24.92 14.4 57.8 27 -4.1 24.6
12:05 1015 29.97 844 24.92 14.2 57.5 29 -3.7 25.3
12:10 1015 29.97 844 24.92 14.1 57.3 28 -4 24.9
12:15 1015 29.97 844 24.92 14.4 58 28 -4 24.8
12:20 1014 29.94 844 24.92 14.6 58.3 27 -4.1 24.6
12:25 1014 29.94 844 24.92 14.6 58.3 28 -3.8 25.2
12:30 1014 29.94 843 24.89 14 57.2 29 -3.5 25.7
12:35 1014 29.94 843 24.89 14.1 57.4 29 -3.4 25.8
12:40 1014 29.94 843 24.89 13.8 56.8 30 -3.2 26.2
12:45 1014 29.94 843 24.89 13.4 56.2 31 -3.4 25.9
12:50 1014 29.94 843 24.89 13.7 56.7 31 -3.2 26.2
12:55 1014 29.94 844 24.92 13.8 56.9 30 -3.5 25.7
13:00 1014 29.94 844 24.92 13.8 56.9 30 -3.4 25.8
13:05 1014 29.94 844 24.92 13.8 56.9 30 -3.2 26.2
13:10 1014 29.94 844 24.92 14 57.2 29 -3.5 25.8
13:15 1014 29.94 844 24.92 14.3 57.8 29 -3.4 25.8
13:20 1014 29.94 844 24.92 14.6 58.4 29 -3.2 26.2
13:25 1014 29.94 844 24.92 15.3 59.5 27 -3.3 26.1
13:30 1014 29.94 844 24.92 16 60.8 26 -3.4 25.9
13:35 1014 29.94 844 24.92 16.1 60.9 26 -3.6 25.6
13:40 1014 29.94 843 24.89 15.8 60.4 24 -4.5 24
13:45 1014 29.94 843 24.89 16.1 61 24 -4.6 23.7
13:50 1014 29.94 843 24.89 15.8 60.4 25 -4 24.9
13:55 1014 29.94 843 24.89 15.8 60.4 25 -4.2 24.4
14:00 1014 29.94 843 24.89 15.5 59.8 26 -4.1 24.6
14:05 1014 29.94 843 24.89 15.4 59.8 28 -3.1 26.4
14:10 1014 29.94 843 24.89 14.9 58.9 28 -3.6 25.6
14:15 1014 29.94 843 24.89 14.7 58.4 28 -3.8 25.2
14:20 1014 29.94 843 24.89 14.7 58.4 28 -3.6 25.5
14:25 1014 29.94 843 24.89 14.8 58.6 28 -3.3 26.1
14:30 1014 29.94 843 24.89 15.1 59.2 27 -3.7 25.4
14:35 1014 29.94 843 24.89 15.3 59.5 27 -3.4 25.8
14:40 1014 29.94 843 24.89 15.7 60.3 27 -3.2 26.2
14:45 1014 29.94 843 24.89 15.4 59.8 27 -3.2 26.3
14:50 1014 29.94 843 24.89 14.8 58.7 28 -3.6 25.6
14:55 1014 29.94 843 24.89 14.6 58.2 28 -3.5 25.7
15:00 1014 29.94 843 24.89 14.5 58 29 -3.3 26
15:05 1014 29.94 843 24.89 14.5 58 28 -3.8 25.2
15:10 1014 29.94 843 24.89 14.6 58.2 28 -3.8 25.2
15:15 1014 29.94 843 24.89 14.6 58.3 28 -3.4 25.8
15:20 1014 29.94 843 24.89 14.5 58.2 28 -3.6 25.5
15:25 1014 29.94 843 24.89 14.6 58.2 29 -3.3 26
15:30 1014 29.94 843 24.89 14.8 58.7 27 -3.7 25.3
15:35 1014 29.94 843 24.89 14.7 58.4 28 -3.5 25.7
15:40 1014 29.94 843 24.89 14.5 58.1 28 -3.5 25.6
15:45 1014 29.94 843 24.89 14.4 57.9 28 -3.8 25.1
15:50 1014 29.94 843 24.89 14.4 57.8 27 -4.2 24.4
15:55 1014 29.94 843 24.89 14.4 57.9 28 -3.9 25
16:00 1014 29.94 843 24.89 14.4 57.9 28 -3.9 25
16:05 1014 29.94 843 24.89 14.2 57.6 28 -4.1 24.7
16:10 1014 29.94 843 24.89 14.1 57.4 28 -4.2 24.5
16:15 1014 29.94 843 24.89 14 57.3 28 -4 24.8
16:20 1014 29.94 843 24.89 14.1 57.3 28 -4 24.9
16:25 1014 29.94 843 24.89 14 57.1 28 -4.1 24.7
16:30 1014 29.94 843 24.89 14 57.1 29 -3.9 25
16:35 1014 29.94 843 24.89 14 57.2 28 -4.1 24.7
16:40 1014 29.94 843 24.89 14.1 57.3 28 -4 24.8
16:45 1014 29.94 843 24.89 14.1 57.4 27 -4.3 24.2
16:50 1014 29.94 843 24.89 14 57.1 28 -4.1 24.7
16:55 1014 29.94 843 24.89 14 57.3 28 -4.3 24.2
17:00 1014 29.94 843 24.89 14.1 57.5 28 -4.2 24.4
17:05 1014 29.94 843 24.89 14.4 58 27 -4.1 24.7
17:10 1014 29.94 843 24.89 14.4 57.9 28 -3.9 24.9
17:15 1014 29.94 843 24.89 14.4 57.9 28 -3.8 25.1
17:20 1014 29.94 843 24.89 14.5 58 27 -4.3 24.3
17:25 1014 29.94 843 24.89 14.3 57.7 28 -4.1 24.6
17:30 1014 29.94 843 24.89 14.2 57.6 27 -4.4 24.1
17:35 1014 29.94 843 24.89 14.2 57.6 28 -4 24.8
17:40 1014 29.94 843 24.89 14.1 57.3 28 -3.9 24.9
17:45 1014 29.94 843 24.89 13.9 57.1 27 -4.6 23.7
17:50 1014 29.94 843 24.89 13.9 57.1 28 -4.1 24.6
17:55 1014 29.94 843 24.89 14 57.1 28 -4.1 24.6
18:00 1014 29.94 843 24.89 13.8 56.8 29 -3.9 24.9
18:05 1014 29.94 843 24.89 13.6 56.6 29 -4 24.8
18:10 1014 29.94 843 24.89 13.5 56.3 29 -4.2 24.4
18:15 1014 29.94 843 24.89 13.4 56.1 30 -4 24.9
18:20 1014 29.94 843 24.89 13.3 56 29 -4.1 24.6
18:25 1014 29.94 843 24.89 13.3 56 29 -4.2 24.5
18:30 1014 29.94 843 24.89 13.3 55.9 30 -4 24.8
18:35 1014 29.94 843 24.89 13.1 55.5 30 -4.2 24.5
18:40 1014 29.94 843 24.89 13 55.4 29 -4.4 24
18:45 1014 29.94 843 24.89 12.9 55.2 30 -4.2 24.5
18:50 1014 29.94 843 24.89 12.8 55 30 -4.5 23.9
18:55 1014 29.94 843 24.89 12.7 54.9 31 -4 24.8
19:00 1014 29.94 843 24.89 12.5 54.5 31 -4 24.7
19:05 1014 29.94 843 24.89 12.5 54.6 31 -3.9 24.9
19:10 1014 29.94 843 24.89 12.4 54.3 31 -4 24.7
19:15 1014 29.94 843 24.89 12.3 54.1 33 -3.6 25.5
19:20 1014 29.94 844 24.92 12.3 54.1 32 -3.8 25.2
19:25 1015 29.97 844 24.92 12.3 54.1 33 -3.6 25.5
19:30 1015 29.97 844 24.92 12.3 54.1 33 -3.6 25.6
19:35 1015 29.97 844 24.92 12.2 53.9 33 -3.6 25.5
19:40 1015 29.97 844 24.92 12.1 53.8 33 -3.6 25.5
19:45 1014 29.94 844 24.92 12.1 53.8 34 -3.4 25.9
19:50 1014 29.94 844 24.92 12.1 53.8 34 -3.4 25.9
19:55 1014 29.94 844 24.92 12 53.6 34 -3.4 26
20:00 1015 29.97 844 24.92 11.9 53.3 34 -3.3 26.1
20:05 1015 29.97 844 24.92 11.8 53.3 35 -3.2 26.2
20:10 1015 29.97 844 24.92 11.8 53.2 35 -3.1 26.3
20:15 1015 29.97 844 24.92 11.8 53.2 35 -3.2 26.3
20:20 1015 29.97 844 24.92 11.7 53.1 34 -3.4 25.9
20:25 1015 29.97 844 24.92 11.9 53.3 36 -2.8 27
20:30 1015 29.97 844 24.92 11.7 53.1 36 -2.7 27.2
20:35 1015 29.97 844 24.92 11.6 52.9 36 -2.8 26.9
20:40 1015 29.97 844 24.92 11.6 52.9 37 -2.6 27.3
20:45 1015 29.97 844 24.92 11.6 52.8 37 -2.7 27.1
20:50 1015 29.97 844 24.92 11.6 52.8 36 -3 26.7
20:55 1015 29.97 844 24.92 11.7 53 36 -2.9 26.8
21:00 1015 29.97 844 24.92 11.8 53.2 35 -3.1 26.5
21:05 1015 29.97 844 24.92 11.8 53.2 36 -2.9 26.8
21:10 1015 29.97 844 24.92 11.7 53.1 35 -3 26.6
21:15 1015 29.97 844 24.92 11.8 53.3 35 -3 26.7
21:20 1014 29.94 844 24.92 11.9 53.3 36 -2.9 26.8
21:25 1014 29.94 844 24.92 11.7 53.1 36 -3 26.6
21:30 1014 29.94 844 24.92 11.7 53.1 36 -2.9 26.9
21:35 1014 29.94 844 24.92 11.7 53 36 -3 26.7
21:40 1014 29.94 843 24.89 11.8 53.3 35 -3.1 26.4
21:45 1014 29.94 843 24.89 11.9 53.3 35 -2.9 26.7
21:50 1014 29.94 843 24.89 11.8 53.2 36 -2.8 27
21:55 1014 29.94 843 24.89 11.7 53.1 36 -2.7 27.1
22:00 1014 29.94 843 24.89 11.7 53 37 -2.6 27.2
22:05 1014 29.94 843 24.89 11.6 52.8 37 -2.6 27.3
22:10 1014 29.94 843 24.89 11.4 52.6 37 -2.7 27.2
22:15 1014 29.94 843 24.89 11.4 52.5 38 -2.2 28
22:20 1014 29.94 843 24.89 11.2 52.2 39 -2.3 27.8
22:25 1014 29.94 843 24.89 11.3 52.3 38 -2.4 27.6
22:30 1014 29.94 843 24.89 11.3 52.4 38 -2.4 27.6
22:35 1014 29.94 843 24.89 11.3 52.3 37 -2.7 27.2
22:40 1014 29.94 843 24.89 11.5 52.7 37 -2.7 27.1
22:45 1014 29.94 843 24.89 11.6 52.9 37 -2.5 27.6
22:50 1014 29.94 843 24.89 11.4 52.5 38 -2.5 27.5
22:55 1014 29.94 843 24.89 11.4 52.4 38 -2.5 27.6
23:00 1014 29.94 844 24.92 11.3 52.4 38 -2.6 27.4
23:05 1015 29.97 844 24.92 11.3 52.3 38 -2.3 27.8
23:10 1015 29.97 844 24.92 11.1 51.9 39 -2.3 27.8
23:15 1015 29.97 844 24.92 10.9 51.6 39 -2.3 27.8
23:20 1014 29.94 844 24.92 11.1 52 38 -2.7 27.2
23:25 1015 29.97 844 24.92 11.3 52.3 38 -2.5 27.6
23:30 1015 29.97 844 24.92 11.2 52.2 38 -2.5 27.5
23:35 1015 29.97 844 24.92 11.4 52.4 37 -2.7 27.1
23:40 1015 29.97 844 24.92 11.5 52.7 38 -2.2 28.1
23:45 1015 29.97 844 24.92 11.4 52.5 36 -2.9 26.7
23:50 1015 29.97 844 24.92 11.8 53.2 36 -2.9 26.8
23:55 1015 29.97 844 24.92 11.7 53.1 37 -2.4 27.6
24:00 1015 29.97 844 24.92 11.4 52.6 39 -1.8 28.7